»·PEaware :: SKY28 KHLN-KLVM

SKY28 :: KHLN-KLVM

FLIGHT INFORMATION

Flight Status: Arrived
Operator:
Sky High Charters
More flights by this operator :: More flights under this callsign
Pilot: John M. (9732)
Aircraft: BEECH AIRCRAFT BONANZA
(BE35)
More flights by this aircraft type
Origin: KHLN Helena Regl
United States
Destination: KLVM Mission
United States
More flights between these airports :: More routes between these airports
Route: HLN4 HLN CURSI V2 LVM
File this flight plan on PilotEdge
Remarks: Sky Hiigh Scenario #7 leg #1
Altitude:
(Current/Filed)
11,000ft
Speed:
(Current/Filed)
140kts
Departed: 22-Aug-19 04:55 PM
Arrived: 22-Aug-19 05:53 PM
Distance/Time
Traveled:
84nm/0:58
Distance/Time
To Go:
Arrived

Flight Plot

Page will automatically refresh every two minutes.


Map Options




Map Legend


Flown Route
Filed Route
Departure Airport
Arrival Airport
Navaid (VOR, NDB)
Fix

Horizontal Profiles

Position Reports

Time Latitude Longitude Heading Altitude Ground
Speed
22-Aug-19 16:31 46.602767 -111.996445 179 3880ft 0kts
22-Aug-19 16:32 46.602765 -111.996445 179 3880ft 0kts
22-Aug-19 16:33 46.602763 -111.996445 179 3880ft 0kts
22-Aug-19 16:34 46.602762 -111.996445 179 3880ft 0kts
22-Aug-19 16:35 46.602760 -111.996445 179 3880ft 0kts
22-Aug-19 16:36 46.602758 -111.996445 179 3880ft 0kts
22-Aug-19 16:37 46.602756 -111.996445 179 3880ft 0kts
22-Aug-19 16:38 46.602755 -111.996445 179 3880ft 0kts
22-Aug-19 16:39 46.602753 -111.996445 179 3880ft 0kts
22-Aug-19 16:40 46.602751 -111.996445 179 3880ft 0kts
22-Aug-19 16:41 46.602713 -111.996430 154 3880ft 0kts
22-Aug-19 16:42 46.603189 -111.994863 87 3880ft 8kts
22-Aug-19 16:43 46.603303 -111.990802 86 3880ft 9kts
22-Aug-19 16:44 46.603436 -111.986898 86 3880ft 9kts
22-Aug-19 16:45 46.603515 -111.983380 87 3880ft 6kts
22-Aug-19 16:46 46.603602 -111.980965 85 3880ft 7kts
22-Aug-19 16:47 46.603429 -111.976763 96 3880ft 12kts
22-Aug-19 16:48 46.603052 -111.971377 99 3880ft 14kts
22-Aug-19 16:49 46.602143 -111.965710 102 3880ft 14kts
22-Aug-19 16:50 46.602330 -111.963292 32 3880ft 0kts
22-Aug-19 16:51 46.602334 -111.963288 32 3880ft 0kts
22-Aug-19 16:52 46.602336 -111.963285 32 3880ft 0kts
22-Aug-19 16:53 46.602729 -111.963199 6 3880ft 10kts
22-Aug-19 16:54 46.606030 -111.982097 280 3938ft 105kts
22-Aug-19 16:55 46.620640 -112.016001 357 5069ft 116kts
22-Aug-19 16:56 46.652419 -112.002753 21 6016ft 128kts
22-Aug-19 16:57 46.686945 -111.993567 11 6912ft 127kts
22-Aug-19 16:58 46.720747 -111.992904 341 7826ft 117kts
22-Aug-19 16:59 46.746151 -112.013780 254 8572ft 117kts
22-Aug-19 17:00 46.721584 -112.001013 140 9335ft 113kts
22-Aug-19 17:01 46.696082 -111.976478 176 10062ft 108kts
22-Aug-19 17:02 46.665098 -111.971638 158 10679ft 115kts
22-Aug-19 17:03 46.633332 -111.953859 165 10978ft 138kts
22-Aug-19 17:04 46.596894 -111.935756 116 10984ft 162kts
22-Aug-19 17:05 46.580972 -111.873114 113 10976ft 167kts
22-Aug-19 17:06 46.559328 -111.813812 124 10978ft 166kts
22-Aug-19 17:08 46.535640 -111.755735 124 10974ft 167kts
22-Aug-19 17:09 46.511952 -111.697482 124 10980ft 167kts
22-Aug-19 17:10 46.488420 -111.639647 124 10986ft 165kts
22-Aug-19 17:11 46.464798 -111.581615 124 10993ft 168kts
22-Aug-19 17:12 46.440841 -111.522817 123 10997ft 169kts
22-Aug-19 17:13 46.418863 -111.462197 124 10992ft 169kts
22-Aug-19 17:14 46.392913 -111.406712 139 11065ft 164kts
22-Aug-19 17:15 46.366641 -111.351397 129 11121ft 166kts
22-Aug-19 17:16 46.340359 -111.296345 124 11159ft 168kts
22-Aug-19 17:17 46.318271 -111.235101 118 11061ft 172kts
22-Aug-19 17:18 46.297430 -111.172309 118 11022ft 172kts
22-Aug-19 17:19 46.277051 -111.109368 118 10985ft 173kts
22-Aug-19 17:20 46.250393 -111.058345 149 11091ft 160kts
22-Aug-19 17:21 46.213016 -111.023348 152 11085ft 163kts
22-Aug-19 17:22 46.176434 -110.984221 146 11102ft 164kts
22-Aug-19 17:23 46.141492 -110.940055 143 11022ft 169kts
22-Aug-19 17:24 46.106729 -110.895571 143 11095ft 162kts
22-Aug-19 17:25 46.071121 -110.855693 150 11110ft 162kts
22-Aug-19 17:26 46.034550 -110.816291 148 11085ft 164kts
22-Aug-19 17:27 45.997892 -110.776356 148 11036ft 165kts
22-Aug-19 17:28 45.961497 -110.736344 148 11009ft 164kts
22-Aug-19 17:29 45.926549 -110.693560 143 11015ft 164kts
22-Aug-19 17:29 45.898376 -110.656647 146 11007ft 164kts
22-Aug-19 17:30 45.862946 -110.615804 151 11000ft 162kts
22-Aug-19 17:32 45.819631 -110.572588 151 10999ft 162kts
22-Aug-19 17:32 45.788359 -110.543454 150 11005ft 161kts
22-Aug-19 17:33 45.753703 -110.502146 145 10997ft 161kts
22-Aug-19 17:34 45.720893 -110.461045 150 10997ft 152kts
22-Aug-19 17:35 45.704974 -110.412873 47 10786ft 178kts
22-Aug-19 17:36 45.729967 -110.355693 58 9963ft 165kts
22-Aug-19 17:37 45.752523 -110.301561 60 9113ft 151kts
22-Aug-19 17:38 45.770898 -110.252276 58 8672ft 126kts
22-Aug-19 17:39 45.789209 -110.204654 64 8595ft 147kts
22-Aug-19 17:40 45.805034 -110.151221 90 8599ft 147kts
22-Aug-19 17:41 45.805453 -110.091817 89 8456ft 154kts
22-Aug-19 17:42 45.825690 -110.043404 352 8038ft 159kts
22-Aug-19 17:43 45.824586 -110.091490 240 7983ft 145kts
22-Aug-19 17:44 45.805421 -110.141452 245 7994ft 141kts
22-Aug-19 17:45 45.789252 -110.190460 245 7600ft 131kts
22-Aug-19 17:46 45.773747 -110.238057 246 6947ft 128kts
22-Aug-19 17:47 45.760857 -110.277489 246 6852ft 101kts
22-Aug-19 17:48 45.748108 -110.316143 246 6499ft 113kts
22-Aug-19 17:49 45.734671 -110.358187 252 5611ft 112kts
22-Aug-19 17:50 45.723744 -110.393832 243 5289ft 91kts
22-Aug-19 17:51 45.708619 -110.424241 240 4912ft 92kts
22-Aug-19 17:52 45.698350 -110.444999 243 4631ft 0kts
22-Aug-19 17:53 45.698350 -110.444999 243 4631ft 0kts
22-Aug-19 17:54 45.696470 -110.452993 233 4634ft 0kts
22-Aug-19 17:55 45.696470 -110.452993 233 4634ft 0kts
22-Aug-19 17:56 45.696470 -110.452993 233 4634ft 0kts
22-Aug-19 17:57 45.696470 -110.452993 233 4633ft 0kts
22-Aug-19 17:58 45.696470 -110.452993 233 4633ft 0kts
22-Aug-19 17:59 45.696470 -110.452993 233 4633ft 0kts
22-Aug-19 18:00 45.696470 -110.452993 233 4633ft 0kts
22-Aug-19 18:01 45.696470 -110.452993 233 4633ft 0kts
22-Aug-19 18:02 45.696470 -110.452993 233 4633ft 0kts
22-Aug-19 18:03 45.696470 -110.452993 233 4633ft 0kts
22-Aug-19 18:04 45.696470 -110.452993 233 4633ft 0kts
22-Aug-19 18:05 45.696470 -110.452993 233 4633ft 0kts
22-Aug-19 18:06 45.696470 -110.452993 233 4633ft 0kts

Navigation Log

Ident Type
Flight plan parsing failed, navigation log unavailable